Language: 


Des rapports , des résumés tant et plus, au choix de chacun....


Données statistiques de la station
Quotidien Rapport Mars 23, 2017 Unités:  Anglais    Métrique   les deux
« Précédent Jour
Suivant Jour »
Quotidien Hebdomadaire Mensuel Annuel Actuel
  Haut: Bas: Moyen:
Température: 61.2 °F 36.9 °F 49.3 °F
Pt de rosée: 43.5 °F 34.5 °F 39.2 °F
Humidité: 97 % 47 % 70 %
Vitesse du vent: 17 mph 0 mph 7.5 mph
Rafales: 17.7 mph - -
Vent:- - ENE
Pression: 30.1 in 29.8 in -
Précipitation: 0 in    
Historical Graphs
 
 
Données statistiques pour Mars 23, 2017
Heure Température Point de rosée Pression Vent Vitesse du vent Refales Humidité Pluie (taux horaire)
00:02 44.1 °F 36 °F 29.8 in ESE 7.8 mph 7.8 mph 73 % 0 in
00:07 44.1 °F 36.1 °F 29.9 in East 6.3 mph 7.8 mph 74 % 0 in
00:12 44.1 °F 36.1 °F 29.9 in ESE 4.9 mph 7.2 mph 74 % 0 in
00:17 43.9 °F 36.1 °F 29.9 in ENE 4 mph 6.3 mph 74 % 0 in
00:22 43.5 °F 35.8 °F 29.8 in ENE 3.6 mph 6 mph 74 % 0 in
00:27 43.3 °F 36 °F 29.8 in East 0.9 mph 6.3 mph 75 % 0 in
00:32 43.3 °F 36 °F 29.8 in East 3.6 mph 7.2 mph 75 % 0 in
00:37 43.3 °F 36 °F 29.8 in ESE 4 mph 7.2 mph 75 % 0 in
00:42 43.2 °F 36.1 °F 29.8 in ESE 5.4 mph 6.5 mph 76 % 0 in
00:47 43 °F 36 °F 29.8 in Calm   6.5 mph 76 % 0 in
00:52 42.8 °F 35.8 °F 29.9 in ESE 5.8 mph 6.5 mph 76 % 0 in
00:57 42.8 °F 36 °F 29.9 in ESE 5.6 mph 5.8 mph 77 % 0 in
01:02 42.8 °F 35.8 °F 29.9 in ESE 3.6 mph 6.7 mph 76 % 0 in
01:07 42.8 °F 36 °F 29.9 in Calm   7.4 mph 77 % 0 in
01:12 42.6 °F 36 °F 29.9 in ESE 4 mph 7.4 mph 77 % 0 in
01:17 42.4 °F 35.8 °F 29.9 in Calm   6.5 mph 77 % 0 in
01:22 42.3 °F 36 °F 29.9 in East 2.2 mph 4.3 mph 78 % 0 in
01:27 42.1 °F 35.8 °F 29.9 in East 4 mph 5.8 mph 78 % 0 in
01:32 42.1 °F 35.8 °F 29.9 in Calm   5.8 mph 78 % 0 in
01:37 41.9 °F 35.4 °F 29.8 in East 0.9 mph 4.3 mph 78 % 0 in
01:42 41.5 °F 35.2 °F 29.8 in Calm   3.8 mph 78 % 0 in
01:47 41.5 °F 35.2 °F 29.8 in ESE 3.8 mph 4.3 mph 78 % 0 in
01:52 41.4 °F 35.2 °F 29.9 in East 2.9 mph 4.3 mph 79 % 0 in
01:57 41.4 °F 35.6 °F 29.9 in East 3.6 mph 5.6 mph 80 % 0 in
02:02 41.4 °F 35.6 °F 29.9 in East 4 mph 5.6 mph 80 % 0 in
02:07 41.4 °F 36 °F 29.9 in ESE 3.8 mph 6 mph 81 % 0 in
02:12 41.5 °F 36.3 °F 29.9 in East 5.4 mph 7.2 mph 82 % 0 in
02:17 41.4 °F 36 °F 29.9 in East 5.6 mph 7.2 mph 81 % 0 in
02:23 41.4 °F 36 °F 29.9 in East 3.4 mph 6.5 mph 81 % 0 in
02:28 41.4 °F 36 °F 29.9 in East 3.1 mph 6.5 mph 81 % 0 in
02:33 41 °F 35.6 °F 29.9 in NE 2.7 mph 4.9 mph 81 % 0 in
02:38 40.8 °F 35.4 °F 29.9 in ENE 2 mph 5.4 mph 81 % 0 in
02:43 40.5 °F 35.4 °F 29.9 in East 3.8 mph 5.4 mph 82 % 0 in
02:48 40.3 °F 35.2 °F 29.9 in ENE 3.4 mph 4.7 mph 82 % 0 in
02:53 40.1 °F 35.1 °F 29.9 in NE 2.7 mph 4.7 mph 82 % 0 in
02:58 39.9 °F 34.9 °F 29.9 in ENE 4 mph 4.7 mph 82 % 0 in
03:03 39.7 °F 35.1 °F 29.9 in ENE 5.4 mph 5.4 mph 83 % 0 in
03:08 39.6 °F 34.9 °F 29.9 in East 3.1 mph 4.9 mph 83 % 0 in
03:13 39.6 °F 35.1 °F 29.9 in ENE 4 mph 5.4 mph 84 % 0 in
03:16 39.6 °F 35.1 °F 29.9 in East 3.8 mph 5.4 mph 84 % 0 in
03:21 39.6 °F 35.1 °F 29.9 in Calm   5.4 mph 84 % 0 in
03:26 39.4 °F 35.1 °F 29.9 in ENE 3.8 mph 5.4 mph 84 % 0 in
03:31 39.2 °F 34.9 °F 29.9 in Calm   4.7 mph 84 % 0 in
03:36 39 °F 34.9 °F 29.9 in NE 4.3 mph 5.4 mph 85 % 0 in
03:41 39 °F 34.9 °F 29.8 in NE 6 mph 6 mph 85 % 0 in
03:46 39 °F 35.2 °F 29.8 in NE 4.5 mph 6.3 mph 86 % 0 in
03:51 38.8 °F 35.1 °F 29.8 in ENE 4.9 mph 6.3 mph 86 % 0 in
03:56 38.7 °F 34.9 °F 29.9 in ENE 4.3 mph 5.4 mph 86 % 0 in
04:01 38.5 °F 34.7 °F 29.9 in NE 3.6 mph 5.6 mph 86 % 0 in
04:06 38.5 °F 34.9 °F 29.9 in NE 4 mph 5.6 mph 87 % 0 in
04:11 38.5 °F 35.1 °F 29.8 in ENE 5.8 mph 5.8 mph 87 % 0 in
04:16 38.5 °F 35.1 °F 29.8 in ENE 5.4 mph 5.8 mph 88 % 0 in
04:21 38.5 °F 35.1 °F 29.8 in ENE 4.7 mph 6 mph 88 % 0 in
04:26 38.5 °F 35.1 °F 29.9 in ENE 4.3 mph 6 mph 88 % 0 in
04:31 38.5 °F 35.1 °F 29.9 in ENE 4.3 mph 5.6 mph 88 % 0 in
04:36 38.5 °F 35.1 °F 29.9 in ENE 4.9 mph 5.6 mph 88 % 0 in
04:41 38.5 °F 35.4 °F 29.9 in NNE 4.9 mph 6.5 mph 89 % 0 in
04:46 38.5 °F 35.4 °F 29.9 in NE 4.9 mph 6.5 mph 89 % 0 in
04:51 38.1 °F 35.2 °F 29.9 in NNE 5.6 mph 5.6 mph 89 % 0 in
04:56 37.9 °F 35.1 °F 29.9 in NE 4.9 mph 5.8 mph 89 % 0 in
05:01 37.9 °F 35.1 °F 29.9 in NNE 4 mph 5.8 mph 89 % 0 in
05:06 37.8 °F 34.9 °F 29.9 in NE 3.6 mph 5.4 mph 89 % 0 in
05:11 37.6 °F 34.5 °F 29.9 in NE 4.3 mph 4.9 mph 89 % 0 in
05:16 37.8 °F 35.2 °F 29.9 in North 4.7 mph 5.6 mph 90 % 0 in
05:22 37.6 °F 35.2 °F 29.9 in NNE 4 mph 5.6 mph 91 % 0 in
05:27 37.6 °F 35.1 °F 29.9 in East 4 mph 5.6 mph 91 % 0 in
05:32 37.2 °F 34.9 °F 29.9 in NNE 5.6 mph 6 mph 91 % 0 in
05:37 37.2 °F 34.9 °F 29.9 in NNE 4.7 mph 6 mph 91 % 0 in
05:42 37 °F 35.1 °F 29.9 in NE 4 mph 6 mph 92 % 0 in
05:47 36.9 °F 34.9 °F 29.9 in NNE 6 mph 6 mph 92 % 0 in
05:52 36.9 °F 35.1 °F 29.9 in NNE 4.3 mph 6.3 mph 93 % 0 in
05:57 36.9 °F 35.1 °F 29.8 in NNE 6.7 mph 7.2 mph 93 % 0 in
06:02 37 °F 35.4 °F 29.8 in NNE 5.6 mph 7.8 mph 94 % 0 in
06:07 37 °F 35.4 °F 29.8 in NNE 5.6 mph 7.8 mph 94 % 0 in
06:12 36.9 °F 35.4 °F 29.9 in NE 4.9 mph 6 mph 94 % 0 in
06:17 37 °F 35.8 °F 29.9 in NE 5.6 mph 6 mph 95 % 0 in
06:22 37 °F 35.8 °F 29.9 in NNE 2.9 mph 5.8 mph 95 % 0 in
06:27 37 °F 35.4 °F 29.9 in North 3.1 mph 5.6 mph 94 % 0 in
06:32 36.9 °F 35.4 °F 29.9 in North 3.6 mph 4 mph 94 % 0 in
06:37 36.9 °F 35.4 °F 29.9 in Calm   4 mph 94 % 0 in
06:42 36.9 °F 35.2 °F 29.9 in Calm   3.4 mph 94 % 0 in
06:47 36.9 °F 35.4 °F 29.9 in ENE 4 mph 4.3 mph 94 % 0 in
06:52 37.2 °F 36 °F 29.8 in ENE 5.4 mph 5.6 mph 95 % 0 in
06:57 37.6 °F 36.1 °F 29.8 in NE 4.9 mph 6.3 mph 95 % 0 in
07:02 37.8 °F 36.9 °F 29.8 in NE 5.8 mph 6.3 mph 96 % 0 in
07:07 38.1 °F 37.4 °F 29.8 in ENE 6 mph 7.2 mph 97 % 0 in
07:12 38.8 °F 38.1 °F 29.8 in NE 8.7 mph 10.1 mph 97 % 0 in
07:17 39.2 °F 38.5 °F 29.8 in NE 7.4 mph 10.1 mph 97 % 0 in
07:22 39.2 °F 38.5 °F 29.9 in NE 9.2 mph 10.1 mph 97 % 0 in
07:27 39.6 °F 38.8 °F 29.9 in ENE 5.4 mph 10.1 mph 97 % 0 in
07:32 39.6 °F 38.8 °F 29.9 in ENE 5.4 mph 9.8 mph 97 % 0 in
07:37 39.9 °F 39.2 °F 29.9 in NE 4 mph 7.2 mph 97 % 0 in
07:42 40.1 °F 39 °F 29.9 in NE 3.4 mph 5.8 mph 96 % 0 in
07:47 40.1 °F 39 °F 29.9 in NE 4 mph 4.9 mph 96 % 0 in
07:52 40.3 °F 39.2 °F 29.9 in NE 5.6 mph 6.3 mph 96 % 0 in
07:57 40.5 °F 39.4 °F 29.9 in ENE 4.9 mph 6.3 mph 96 % 0 in
08:02 40.5 °F 39.4 °F 29.9 in NE 5.4 mph 7.4 mph 96 % 0 in
08:07 40.5 °F 39.4 °F 29.9 in NE 6 mph 7.4 mph 96 % 0 in
08:12 40.5 °F 39.4 °F 29.9 in NE 5.4 mph 8.7 mph 96 % 0 in
08:17 40.5 °F 39 °F 29.9 in NE 4.9 mph 8.7 mph 95 % 0 in
08:22 40.6 °F 39.4 °F 29.9 in ENE 5.4 mph 7.2 mph 95 % 0 in
08:27 40.8 °F 39.6 °F 29.9 in NNE 5.8 mph 7.6 mph 95 % 0 in
08:32 41.9 °F 40.8 °F 29.9 in NE 7.6 mph 8.7 mph 96 % 0 in
08:37 43 °F 41.9 °F 29.9 in NE 7.2 mph 8.7 mph 96 % 0 in
08:42 43.5 °F 42.6 °F 29.9 in NNE 6.3 mph 8.7 mph 96 % 0 in
08:47 44.2 °F 42.8 °F 29.9 in NE 9.4 mph 9.4 mph 95 % 0 in
08:52 44.4 °F 42.6 °F 29.9 in ENE 7.6 mph 9.6 mph 93 % 0 in
08:57 45.1 °F 43 °F 29.9 in ENE 8.7 mph 9.6 mph 92 % 0 in
09:02 45.7 °F 43.2 °F 29.9 in NNE 8.7 mph 9.2 mph 91 % 0 in
09:07 45.9 °F 42.6 °F 29.9 in NE 10.5 mph 10.5 mph 89 % 0 in
09:12 46 °F 42.4 °F 29.9 in NE 9.8 mph 10.5 mph 87 % 0 in
09:17 46.6 °F 42.4 °F 29.9 in NE 9.8 mph 10.5 mph 86 % 0 in
09:23 46.8 °F 42.4 °F 29.9 in ENE 6.5 mph 10.5 mph 85 % 0 in
09:28 46.9 °F 42.6 °F 29.9 in ENE 8.5 mph 10.5 mph 85 % 0 in
09:33 47.7 °F 43.3 °F 29.9 in NE 7.6 mph 8.7 mph 85 % 0 in
09:38 47.7 °F 42.8 °F 29.9 in ENE 7.8 mph 10.1 mph 83 % 0 in
09:43 47.3 °F 42.1 °F 29.9 in ENE 6.9 mph 10.1 mph 82 % 0 in
09:48 47.1 °F 41.5 °F 29.9 in ENE 7.8 mph 9.8 mph 81 % 0 in
09:53 47.3 °F 41.7 °F 29.9 in ENE 10.3 mph 12.5 mph 81 % 0 in
09:58 48.4 °F 42.8 °F 29.9 in ENE 8.1 mph 12.5 mph 81 % 0 in
10:03 48.9 °F 43.3 °F 29.9 in NE 8.1 mph 10.7 mph 81 % 0 in
10:08 49.3 °F 42.4 °F 29.9 in ENE 7.4 mph 11 mph 77 % 0 in
10:13 49.6 °F 42.4 °F 29.9 in ENE 10.5 mph 11 mph 76 % 0 in
10:18 49.8 °F 42.3 °F 29.9 in ENE 9.6 mph 12.1 mph 75 % 0 in
10:23 50.4 °F 42.6 °F 29.9 in NE 8.5 mph 12.1 mph 75 % 0 in
10:28 50.7 °F 42.6 °F 29.9 in ENE 10.1 mph 11 mph 74 % 0 in
10:33 51.1 °F 42.6 °F 29.9 in NE 9.8 mph 11.4 mph 73 % 0 in
10:38 51.4 °F 42.6 °F 29.9 in East 7.6 mph 11.4 mph 72 % 0 in
10:43 52.2 °F 43.3 °F 29.9 in East 6.3 mph 13.4 mph 72 % 0 in
10:48 52.5 °F 43.5 °F 29.9 in NE 8.7 mph 13.4 mph 71 % 0 in
10:53 52.5 °F 42.6 °F 29.9 in ENE 8.1 mph 13.2 mph 69 % 0 in
10:58 53.1 °F 43.2 °F 29.9 in ENE 9.2 mph 13.2 mph 69 % 0 in
11:03 52.5 °F 42.1 °F 29.9 in ENE 13.6 mph 14.5 mph 67 % 0 in
11:08 52.9 °F 42.3 °F 29.9 in ENE 9.2 mph 14.5 mph 67 % 0 in
11:09 53.1 °F 41.9 °F 29.9 in ENE 8.7 mph 14.5 mph 66 % 0 in
11:14 53.4 °F 42.4 °F 29.9 in NE 12.3 mph 15.4 mph 66 % 0 in
11:19 53.8 °F 42.3 °F 29.9 in NE 8.7 mph 15.4 mph 65 % 0 in
11:24 54 °F 42.1 °F 29.9 in NE 13.9 mph 15.2 mph 64 % 0 in
11:29 54 °F 41.5 °F 29.9 in East 14.3 mph 15.2 mph 63 % 0 in
11:34 54.9 °F 42.4 °F 29.9 in ENE 12.3 mph 15.2 mph 63 % 0 in
11:39 54.7 °F 41.7 °F 29.9 in East 10.5 mph 17.4 mph 62 % 0 in
11:40 54.7 °F 41.4 °F 29.9 in ENE 10.5 mph 17.4 mph 61 % 0 in
11:45 54.9 °F 41.4 °F 29.9 in NE 8.5 mph 17.4 mph 60 % 0 in
11:50 55.6 °F 41.7 °F 29.9 in East 9.6 mph 17.7 mph 60 % 0 in
11:55 55.9 °F 42.6 °F 29.9 in East 9.8 mph 17.7 mph 61 % 0 in
12:00 56.3 °F 43.2 °F 29.9 in NE 12.3 mph 15.4 mph 61 % 0 in
12:05 56.3 °F 41.7 °F 29.9 in ENE 12.8 mph 17.7 mph 58 % 0 in
12:10 56.7 °F 42.1 °F 29.9 in ENE 8.7 mph 17.7 mph 58 % 0 in
12:15 56.8 °F 41.7 °F 29.9 in East 10.3 mph 13.4 mph 57 % 0 in
12:20 56.8 °F 42.3 °F 29.9 in ESE 7.4 mph 13.6 mph 58 % 0 in
12:26 56.7 °F 41.2 °F 29.9 in East 10.3 mph 17 mph 56 % 0 in
12:31 57 °F 41.5 °F 29.9 in East 13.2 mph 17 mph 56 % 0 in
12:36 57.2 °F 41.7 °F 29.9 in East 12.3 mph 15.7 mph 56 % 0 in
12:41 56.7 °F 41.2 °F 29.9 in East 10.5 mph 15.7 mph 56 % 0 in
12:46 57 °F 42.1 °F 29.9 in East 6.5 mph 15.9 mph 57 % 0 in
12:51 57.2 °F 41.7 °F 29.9 in East 7.8 mph 15.9 mph 56 % 0 in
12:56 56.5 °F 41 °F 29.9 in East 12.3 mph 13.9 mph 56 % 0 in
13:01 56.8 °F 41.4 °F 29.9 in East 10.1 mph 13.9 mph 56 % 0 in
13:06 56.7 °F 40.6 °F 29.9 in East 8.1 mph 14.5 mph 55 % 0 in
13:11 56.3 °F 41.4 °F 29.9 in East 11.9 mph 14.5 mph 57 % 0 in
13:16 56.3 °F 41.7 °F 29.9 in ENE 8.7 mph 13 mph 58 % 0 in
13:21 56.5 °F 42.4 °F 29.9 in ENE 13.4 mph 13.4 mph 59 % 0 in
13:26 56.3 °F 42.6 °F 29.9 in East 10.7 mph 14.8 mph 60 % 0 in
13:31 56.3 °F 41.7 °F 29.9 in ENE 11 mph 14.8 mph 58 % 0 in
13:36 56.1 °F 41.5 °F 29.9 in ENE 8.5 mph 13 mph 58 % 0 in
13:41 56.3 °F 41.7 °F 29.9 in ENE 9.6 mph 15.2 mph 58 % 0 in
13:46 57 °F 43 °F 29.9 in ENE 17 mph 17 mph 59 % 0 in
13:51 57.7 °F 43.2 °F 29.9 in NE 9.8 mph 17 mph 58 % 0 in
13:56 57.6 °F 42.1 °F 29.9 in NE 12.8 mph 16.1 mph 56 % 0 in
14:01 57.9 °F 42.8 °F 29.9 in East 8.1 mph 16.1 mph 57 % 0 in
14:06 58.1 °F 42.1 °F 29.9 in East 8.5 mph 15.4 mph 55 % 0 in
14:11 58.3 °F 42.6 °F 29.9 in ENE 9.2 mph 14.8 mph 56 % 0 in
14:16 58.8 °F 42.6 °F 29.9 in East 9.2 mph 13 mph 55 % 0 in
14:21 59.4 °F 42.6 °F 29.9 in East 12.5 mph 14.8 mph 54 % 0 in
14:22 59.4 °F 42.6 °F 29.9 in ENE 10.3 mph 14.8 mph 54 % 0 in
14:27 59.2 °F 42.1 °F 29.9 in NNE 8.9 mph 14.8 mph 53 % 0 in
14:32 58.6 °F 41.2 °F 29.9 in ENE 9.2 mph 15.4 mph 52 % 0 in
14:42 59.2 °F 40.5 °F 29.9 in ENE 10.7 mph 15.4 mph 50 % 0 in
14:47 59.5 °F 40.8 °F 29.9 in East 8.7 mph 15.2 mph 50 % 0 in
14:52 60.6 °F 41.7 °F 29.9 in East 13.4 mph 15.2 mph 50 % 0 in
14:57 61 °F 42.3 °F 29.9 in East 8.1 mph 13.9 mph 50 % 0 in
15:02 60.6 °F 41.4 °F 29.9 in NE 10.7 mph 15.9 mph 49 % 0 in
15:07 61 °F 41.5 °F 29.9 in NE 8.1 mph 16.6 mph 49 % 0 in
15:12 61.2 °F 41.7 °F 29.9 in ENE 9.6 mph 16.6 mph 49 % 0 in
15:17 60.6 °F 41.4 °F 29.9 in ENE 8.9 mph 15.4 mph 49 % 0 in
15:22 60.8 °F 41.5 °F 29.9 in East 9.8 mph 15.4 mph 49 % 0 in
15:27 60.4 °F 40.6 °F 29.9 in ENE 15.7 mph 16.8 mph 48 % 0 in
15:32 60.4 °F 40.6 °F 29.9 in ENE 6.5 mph 16.8 mph 48 % 0 in
15:37 60.8 °F 41.5 °F 29.9 in East 8.1 mph 16.6 mph 49 % 0 in
15:42 61 °F 41.5 °F 29.9 in ENE 7.6 mph 14.8 mph 49 % 0 in
15:47 60.8 °F 40.8 °F 29.9 in East 11 mph 15.4 mph 48 % 0 in
15:52 60.4 °F 40.1 °F 29.9 in East 12.8 mph 15.7 mph 47 % 0 in
15:57 60.6 °F 40.3 °F 29.9 in East 9.8 mph 15.9 mph 47 % 0 in
16:02 60.6 °F 40.3 °F 29.9 in ENE 15.2 mph 17.2 mph 47 % 0 in
16:07 60.4 °F 40.6 °F 29.9 in East 7.6 mph 17.2 mph 48 % 0 in
16:12 60.1 °F 40.3 °F 29.9 in East 10.1 mph 13 mph 48 % 0 in
16:17 60.3 °F 39.9 °F 29.9 in East 5.8 mph 13.6 mph 47 % 0 in
16:27 60.6 °F 40.3 °F 29.9 in ENE 8.7 mph 15.2 mph 47 % 0 in
16:32 60.4 °F 40.1 °F 29.9 in East 13.6 mph 16.1 mph 47 % 0 in
16:37 59.9 °F 40.1 °F 29.9 in ESE 7.8 mph 16.1 mph 48 % 0 in
16:42 59.4 °F 39 °F 29.9 in ENE 8.7 mph 13 mph 47 % 0 in
16:47 59.5 °F 39.7 °F 29.9 in East 6.5 mph 13.2 mph 48 % 0 in
16:52 59.5 °F 39.7 °F 29.9 in East 10.7 mph 13.2 mph 48 % 0 in
16:57 59.2 °F 39.6 °F 29.9 in NNE 11 mph 13.2 mph 48 % 0 in
17:02 59.2 °F 39.6 °F 29.9 in ENE 9.2 mph 13.6 mph 48 % 0 in
17:07 59.2 °F 39.6 °F 29.9 in ENE 8.1 mph 13.6 mph 48 % 0 in
17:12 59.2 °F 39.6 °F 29.9 in ENE 8.7 mph 14.8 mph 48 % 0 in
17:17 58.8 °F 39.2 °F 29.9 in ENE 8.5 mph 14.8 mph 48 % 0 in
17:22 58.6 °F 39 °F 29.9 in ENE 10.7 mph 14.8 mph 48 % 0 in
17:27 58.3 °F 39.2 °F 29.9 in ENE 7.6 mph 14.8 mph 49 % 0 in
17:32 58.1 °F 39 °F 29.9 in NE 7.8 mph 11 mph 49 % 0 in
17:38 57.9 °F 38.8 °F 29.9 in ENE 7.6 mph 11 mph 49 % 0 in
17:43 57.7 °F 39.2 °F 29.9 in ENE 4.9 mph 11 mph 50 % 0 in
17:48 57.4 °F 38.8 °F 29.9 in NE 7.8 mph 8.1 mph 50 % 0 in
17:53 57.4 °F 38.8 °F 29.9 in ENE 8.5 mph 9.8 mph 50 % 0 in
17:58 57.2 °F 38.7 °F 29.9 in ENE 8.7 mph 12.3 mph 50 % 0 in
18:03 57.2 °F 38.7 °F 29.9 in ENE 7.6 mph 12.3 mph 50 % 0 in
18:08 57 °F 38.7 °F 29.9 in ENE 8.7 mph 10.7 mph 50 % 0 in
18:13 56.8 °F 38.8 °F 29.9 in ENE 8.1 mph 10.1 mph 51 % 0 in
18:18 56.7 °F 38.8 °F 29.9 in ENE 6 mph 10.1 mph 51 % 0 in
18:23 56.7 °F 38.8 °F 29.9 in East 7.4 mph 11 mph 51 % 0 in
18:28 56.5 °F 39 °F 29.9 in ENE 7.6 mph 11 mph 52 % 0 in
18:33 56.5 °F 39 °F 29.9 in NE 9.8 mph 10.3 mph 52 % 0 in
18:38 56.1 °F 38.8 °F 29.9 in NNE 5.4 mph 10.3 mph 52 % 0 in
18:43 56.1 °F 38.8 °F 29.9 in NE 8.7 mph 10.5 mph 52 % 0 in
18:48 55.8 °F 38.5 °F 29.9 in ENE 8.1 mph 10.5 mph 52 % 0 in
18:53 55.8 °F 38.5 °F 29.9 in ENE 7.8 mph 10.7 mph 52 % 0 in
18:58 55.6 °F 38.3 °F 29.9 in ENE 8.1 mph 10.7 mph 52 % 0 in
19:03 55.6 °F 38.7 °F 29.9 in ENE 5.8 mph 10.3 mph 53 % 0 in
19:08 55.2 °F 38.5 °F 29.9 in NE 8.5 mph 10.3 mph 53 % 0 in
19:12 55.2 °F 38.5 °F 29.9 in NE 7.4 mph 8.7 mph 53 % 0 in
19:22 55 °F 38.3 °F 29.9 in NE 8.1 mph 10.3 mph 53 % 0 in
19:25 54.9 °F 38.7 °F 29.9 in NE 8.1 mph 10.1 mph 54 % 0 in
19:30 54.9 °F 38.5 °F 29.9 in NE 7.6 mph 9.8 mph 54 % 0 in
19:35 54.3 °F 38.7 °F 29.9 in NE 9.6 mph 9.8 mph 55 % 0 in
19:40 54 °F 38.1 °F 30 in NNW 9.8 mph 9.8 mph 55 % 0 in
19:41 54 °F 38.1 °F 30 in NE 9.2 mph 9.8 mph 55 % 0 in
19:46 54 °F 38.7 °F 30 in NE 10.1 mph 10.7 mph 56 % 0 in
19:51 54 °F 39 °F 30 in NNE 7.2 mph 11.9 mph 57 % 0 in
19:56 53.8 °F 39.4 °F 30 in NE 9.4 mph 10.7 mph 58 % 0 in
20:01 53.4 °F 39.6 °F 30 in NE 10.1 mph 12.8 mph 59 % 0 in
20:06 53.2 °F 39.7 °F 30 in ENE 9.8 mph 12.8 mph 60 % 0 in
20:11 53.2 °F 39.6 °F 30 in NE 10.3 mph 10.3 mph 60 % 0 in
20:16 53.2 °F 40.3 °F 30 in NNE 8.7 mph 13 mph 61 % 0 in
20:21 53.1 °F 40.3 °F 30 in NE 10.1 mph 13 mph 62 % 0 in
20:26 52.9 °F 40.1 °F 29.9 in NE 10.1 mph 11.4 mph 62 % 0 in
20:31 52.5 °F 40.5 °F 29.9 in NE 8.9 mph 11.2 mph 63 % 0 in
20:36 52.5 °F 40.8 °F 29.9 in NE 9.2 mph 12.8 mph 64 % 0 in
20:41 52.5 °F 40.8 °F 30 in ENE 7.6 mph 12.8 mph 64 % 0 in
20:46 52.5 °F 41 °F 30 in NE 10.3 mph 12.1 mph 65 % 0 in
20:51 52.5 °F 41.2 °F 30 in NE 9.8 mph 13.9 mph 65 % 0 in
20:56 52.5 °F 41 °F 30 in NE 9.6 mph 14.5 mph 65 % 0 in
21:01 52.5 °F 41.4 °F 30 in NE 8.1 mph 14.5 mph 66 % 0 in
21:06 52.3 °F 41.4 °F 30 in NE 11.9 mph 13.2 mph 66 % 0 in
21:12 52.2 °F 41.2 °F 30 in NE 11.2 mph 11.9 mph 66 % 0 in
21:17 52.2 °F 41.5 °F 30 in NE 8.9 mph 13 mph 67 % 0 in
21:22 52.2 °F 41.5 °F 30 in NE 10.1 mph 13 mph 67 % 0 in
21:27 52.2 °F 41.2 °F 30 in ENE 9.2 mph 16.3 mph 66 % 0 in
21:32 52.2 °F 41.2 °F 30 in NE 9.8 mph 16.3 mph 66 % 0 in
21:37 52 °F 40.8 °F 30 in ENE 10.5 mph 13 mph 66 % 0 in
21:42 52 °F 40.8 °F 30 in NE 9.8 mph 14.8 mph 66 % 0 in
21:47 52 °F 40.8 °F 30 in NE 11 mph 17 mph 66 % 0 in
21:52 52 °F 40.8 °F 30 in ENE 7.8 mph 17 mph 66 % 0 in
21:57 52 °F 40.8 °F 30 in East 10.1 mph 13.2 mph 66 % 0 in
22:02 51.8 °F 40.8 °F 30 in ENE 14.8 mph 14.8 mph 66 % 0 in
22:07 52 °F 40.8 °F 30 in ENE 7.4 mph 14.8 mph 66 % 0 in
22:17 51.8 °F 40.8 °F 30 in ENE 6.3 mph 15.2 mph 66 % 0 in
22:22 51.6 °F 40.6 °F 30 in ENE 8.7 mph 13.2 mph 66 % 0 in
22:27 51.6 °F 40.6 °F 30 in ENE 8.1 mph 13.2 mph 66 % 0 in
22:32 51.4 °F 40.8 °F 30 in ENE 13.2 mph 13.2 mph 67 % 0 in
22:37 51.4 °F 40.8 °F 30 in NE 8.5 mph 17.4 mph 67 % 0 in
22:42 51.3 °F 40.6 °F 30.1 in ENE 9.8 mph 17.4 mph 67 % 0 in
22:47 51.3 °F 41 °F 30.1 in NE 8.7 mph 13.4 mph 68 % 0 in
22:52 51.1 °F 40.8 °F 30.1 in ENE 10.1 mph 13.4 mph 68 % 0 in
22:57 51.1 °F 40.8 °F 30.1 in NE 7.8 mph 12.8 mph 68 % 0 in
23:02 50.9 °F 40.6 °F 30.1 in East 8.5 mph 12.3 mph 68 % 0 in
23:07 50.9 °F 41.2 °F 30.1 in NE 10.1 mph 16.8 mph 69 % 0 in
23:12 50.7 °F 40.8 °F 30.1 in ENE 10.1 mph 16.8 mph 69 % 0 in
23:17 50.7 °F 40.8 °F 30.1 in ENE 7.8 mph 12.5 mph 69 % 0 in
23:22 50.7 °F 40.8 °F 30.1 in NE 7.6 mph 13.2 mph 69 % 0 in
23:27 50.7 °F 40.8 °F 30.1 in ENE 11.9 mph 13.2 mph 69 % 0 in
23:32 50.7 °F 40.8 °F 30.1 in ESE 5.4 mph 14.5 mph 69 % 0 in
23:34 50.7 °F 40.8 °F 30.1 in NE 10.5 mph 14.5 mph 69 % 0 in
23:39 50.5 °F 40.6 °F 30.1 in NE 7.8 mph 14.5 mph 69 % 0 in
23:44 50.5 °F 40.6 °F 30.1 in East 8.5 mph 13.2 mph 69 % 0 in
23:49 50.5 °F 40.6 °F 30.1 in ENE 12.8 mph 14.5 mph 69 % 0 in
23:54 50.5 °F 40.6 °F 30.1 in NNE 6 mph 16.8 mph 69 % 0 in
23:59 50.5 °F 40.6 °F 30.1 in ENE 8.7 mph 16.8 mph 69 % 0 in
Le Gheer Warneton
Courtoisie de Weather Underground - 2.25 mb

Mise a jour : 18/12/2017 23:16:12
Généré par Cumulus 1.9.4 (1099)